This is the latest recevied weather packets stored in our database for station/object WE1C. If no packets are shown the sender has not sent any weather packets the latest 10 day(s).
| Time | Temp. | Humidity | Pressure | Rain* | Wind** | Luminosity | Snow |
|---|---|---|---|---|---|---|---|
| 1777913302 | 18.89° C | 33% | 1037.6 hPa | 0 mm | - | 772 W/m² | - |
| 1777912999 | 19.44° C | 33% | 1037.5 hPa | 0 mm | - | 769 W/m² | - |
| 1777912695 | 18.89° C | 32% | 1037.5 hPa | 0 mm | - | 760 W/m² | - |
| 1777912391 | 18.89° C | 31% | 1037.6 hPa | 0 mm | - | 767 W/m² | - |
| 1777912088 | 18.89° C | 35% | 1037.7 hPa | 0 mm | - | 768 W/m² | - |
| 1777911783 | 18.89° C | 34% | 1037.9 hPa | 0 mm | - | 744 W/m² | - |
| 1777911480 | 19.44° C | 34% | 1037.8 hPa | 0 mm | - | 749 W/m² | - |
| 1777911177 | 18.89° C | 33% | 1038.1 hPa | 0 mm | - | 784 W/m² | - |
| 1777910875 | 18.33° C | 36% | 1038.2 hPa | 0 mm | - | 779 W/m² | - |
| 1777910571 | 18.33° C | 35% | 1038.2 hPa | 0 mm | - | 786 W/m² | - |
| 1777910268 | 18.33° C | 35% | 1038.4 hPa | 0 mm | - | 774 W/m² | - |
| 1777909965 | 17.78° C | 37% | 1038.5 hPa | 0 mm | - | 765 W/m² | - |
| 1777909662 | 17.78° C | 36% | 1038.4 hPa | 0 mm | - | 793 W/m² | - |
| 1777909359 | 17.78° C | 38% | 1038.3 hPa | 0 mm | - | 816 W/m² | - |
| 1777909057 | 17.78° C | 38% | 1038.5 hPa | 0 mm | - | 798 W/m² | - |
| 1777908754 | 17.78° C | 38% | 1038.7 hPa | 0 mm | - | 788 W/m² | - |
| 1777908451 | 17.22° C | 37% | 1038.7 hPa | 0 mm | - | 825 W/m² | - |
| 1777908148 | 17.78° C | 37% | 1038.8 hPa | 0 mm | - | 839 W/m² | - |
| 1777907844 | 17.22° C | 39% | 1038.8 hPa | 0 mm | - | 836 W/m² | - |
| 1777907540 | 17.22° C | 41% | 1039 hPa | 0 mm | - | 773 W/m² | - |
| 1777907236 | 17.78° C | 39% | 1039.1 hPa | 0 mm | - | 790 W/m² | - |
| 1777906933 | 17.78° C | 37% | 1038.9 hPa | 0 mm | - | 779 W/m² | - |
| 1777906631 | 17.22° C | 41% | 1038.9 hPa | 0 mm | - | 649 W/m² | - |
| 1777906326 | 16.67° C | 38% | 1039.1 hPa | 0 mm | - | 886 W/m² | - |
| 1777906023 | 17.22° C | 38% | 1039.3 hPa | 0 mm | - | 885 W/m² | - |
* Rain latest hour (hover to see other rain measurements)
** Current wind speed in m/s (hover to see current wind gust speed)